Time;durP1;ratioP1;P1;durP2;ratioP2;P2;SDS_P1;SDS_P2;PMS_P1;PMS_P2;Temp;Humidity;BMP_temperature;BMP_pressure;BME280_temperature;BME280_humidity;BME280_pressure;Samples;Min_cycle;Max_cycle;Signal;HPM_P1;HPM_P2
2023/02/14 00:01:31;;;;;;;4.03;2.80;;;3.00;79.70;;;;;;4819446;29;20210;-72
2023/02/14 00:03:59;;;;;;;4.23;2.77;;;3.00;79.70;;;;;;4820539;29;20665;-71
2023/02/14 00:06:26;;;;;;;3.70;2.53;;;3.00;79.70;;;;;;4815240;29;20183;-74
2023/02/14 00:08:52;;;;;;;6.37;2.83;;;3.00;79.60;;;;;;4820060;29;20187;-74
2023/02/14 00:11:19;;;;;;;15.40;2.30;;;2.90;79.80;;;;;;4829997;29;20227;-73
2023/02/14 00:16:30;;;;;;;2.27;2.13;;;2.90;80.10;;;;;;4820699;29;21065;-73
2023/02/14 00:19:02;;;;;;;2.63;2.30;;;2.80;80.30;;;;;;4821480;29;20252;-73
2023/02/14 00:21:28;;;;;;;2.53;2.37;;;2.80;80.40;;;;;;4823655;29;20192;-73
2023/02/14 00:23:54;;;;;;;3.07;2.37;;;2.90;80.30;;;;;;4833938;29;20191;-73
2023/02/14 00:26:20;;;;;;;3.57;2.20;;;2.90;80.10;;;;;;4820943;29;20186;-73
2023/02/14 00:28:45;;;;;;;3.23;2.63;;;3.00;80.00;;;;;;4823047;29;20228;-72
2023/02/14 00:31:11;;;;;;;3.53;2.13;;;3.00;80.00;;;;;;4823255;29;20298;-72
2023/02/14 00:33:37;;;;;;;3.10;2.90;;;3.00;80.10;;;;;;4818981;29;20318;-73
2023/02/14 00:36:06;;;;;;;2.13;2.03;;;3.00;80.20;;;;;;4821908;29;20574;-72
2023/02/14 00:38:32;;;;;;;3.60;2.73;;;3.00;80.50;;;;;;4819727;29;20205;-73
2023/02/14 00:40:58;;;;;;;3.27;2.97;;;3.00;80.40;;;;;;4824624;29;20247;-72
2023/02/14 00:43:24;;;;;;;2.43;2.33;;;3.10;80.30;;;;;;4816232;29;20678;-72
2023/02/14 00:45:49;;;;;;;2.53;2.37;;;3.10;80.30;;;;;;4821502;29;20184;-73
2023/02/14 00:48:15;;;;;;;2.33;2.20;;;3.10;80.30;;;;;;4819747;29;20203;-73
2023/02/14 00:50:41;;;;;;;4.00;2.80;;;3.20;80.30;;;;;;4821127;29;20202;-72
2023/02/14 00:53:06;;;;;;;2.87;2.10;;;3.20;80.10;;;;;;4823040;29;20598;-72
2023/02/14 00:55:32;;;;;;;2.23;1.87;;;3.20;80.10;;;;;;4826109;29;20183;-73
2023/02/14 00:57:58;;;;;;;2.17;2.07;;;3.20;80.30;;;;;;4825491;29;20286;-72
2023/02/14 01:00:23;;;;;;;2.97;2.13;;;3.10;80.50;;;;;;4825617;29;20183;-73
2023/02/14 01:02:49;;;;;;;4.27;3.17;;;3.20;80.50;;;;;;4824660;29;20219;-71
2023/02/14 01:05:15;;;;;;;2.40;2.17;;;3.20;80.20;;;;;;4821586;29;20686;-72
2023/02/14 01:07:40;;;;;;;2.67;1.73;;;3.20;80.20;;;;;;4819109;29;20192;-72
2023/02/14 01:10:06;;;;;;;3.90;3.57;;;3.20;80.00;;;;;;4822246;29;20243;-72
2023/02/14 01:12:32;;;;;;;2.67;2.53;;;3.20;80.20;;;;;;4836443;29;20717;-72
2023/02/14 01:14:58;;;;;;;3.80;2.33;;;3.20;80.10;;;;;;4828461;29;20184;-72
2023/02/14 01:17:23;;;;;;;4.20;1.77;;;3.20;80.10;;;;;;4823768;29;20199;-72
2023/02/14 01:19:53;;;;;;;3.10;2.53;;;3.20;80.00;;;;;;4822248;29;20187;-72
2023/02/14 01:22:18;;;;;;;1.70;1.60;;;3.20;80.10;;;;;;4822016;29;20195;-72
2023/02/14 01:24:44;;;;;;;3.00;2.70;;;3.30;80.00;;;;;;4822711;29;20207;-72
2023/02/14 01:27:10;;;;;;;3.03;2.03;;;3.30;80.00;;;;;;4820690;29;20880;-72
2023/02/14 01:29:35;;;;;;;3.67;2.90;;;3.30;79.90;;;;;;4822904;29;21019;-72
2023/02/14 01:32:01;;;;;;;3.03;2.43;;;3.20;80.00;;;;;;4822988;29;20246;-72
2023/02/14 01:34:27;;;;;;;3.27;2.40;;;3.20;80.00;;;;;;4823093;29;20184;-73
2023/02/14 01:36:52;;;;;;;3.33;2.83;;;3.10;80.10;;;;;;4828663;29;20239;-72
2023/02/14 01:39:18;;;;;;;2.57;2.47;;;3.20;80.10;;;;;;4819207;29;20187;-72
2023/02/14 01:41:49;;;;;;;3.03;2.37;;;3.10;80.20;;;;;;4822003;29;20192;-72
2023/02/14 01:44:14;;;;;;;2.30;2.17;;;3.10;80.30;;;;;;4824819;29;20207;-72
2023/02/14 01:46:42;;;;;;;5.00;2.67;;;3.00;80.40;;;;;;4826708;29;20191;-72
2023/02/14 01:49:28;;;;;;;2.27;2.17;;;3.00;80.70;;;;;;4827066;29;20199;-72
2023/02/14 01:52:35;;;;;;;2.97;2.77;;;3.00;80.50;;;;;;4821673;29;20226;-72
2023/02/14 01:55:05;;;;;;;2.43;2.23;;;3.10;80.30;;;;;;4802896;29;20211;-72
2023/02/14 01:57:52;;;;;;;3.60;3.30;;;3.10;80.10;;;;;;4806929;29;20607;-73
2023/02/14 02:03:06;;;;;;;3.73;2.73;;;3.20;80.00;;;;;;4804976;29;20212;-73
2023/02/14 02:05:35;;;;;;;1.67;1.47;;;3.10;80.00;;;;;;4805622;29;20201;-71
2023/02/14 02:08:01;;;;;;;3.43;2.77;;;3.10;80.30;;;;;;4799533;29;20192;-72
2023/02/14 02:10:27;;;;;;;2.97;2.70;;;3.10;80.10;;;;;;4802640;29;20203;-72
2023/02/14 02:12:53;;;;;;;3.37;2.97;;;3.10;80.00;;;;;;4804910;29;20361;-71
2023/02/14 02:15:22;;;;;;;4.63;2.57;;;3.10;80.00;;;;;;4803624;29;20196;-71
2023/02/14 02:17:52;;;;;;;4.23;2.77;;;3.10;80.00;;;;;;4804428;29;20273;-72
2023/02/14 02:20:30;;;;;;;2.73;2.53;;;3.10;79.90;;;;;;4807091;29;20206;-71
2023/02/14 02:23:29;;;;;;;2.60;2.40;;;3.10;80.20;;;;;;4803978;29;20274;-73
2023/02/14 02:26:25;;;;;;;3.23;2.33;;;3.10;80.10;;;;;;4805065;29;20581;-73
2023/02/14 02:29:28;;;;;;;3.57;2.57;;;3.00;80.30;;;;;;4802796;29;20279;-72
2023/02/14 02:32:12;;;;;;;1.80;1.70;;;3.00;80.50;;;;;;4825656;29;20737;-71
2023/02/14 02:35:15;;;;;;;3.13;2.90;;;3.00;80.40;;;;;;4816237;29;20225;-73
2023/02/14 02:38:12;;;;;;;2.90;2.23;;;2.90;80.70;;;;;;4819505;29;20235;-74
2023/02/14 02:40:47;;;;;;;2.97;2.77;;;2.90;80.70;;;;;;4821321;29;20188;-74
2023/02/14 02:43:31;;;;;;;2.50;2.20;;;3.00;80.40;;;;;;4822858;29;20190;-72
2023/02/14 02:49:12;;;;;;;2.30;2.17;;;3.00;80.10;;;;;;4821025;29;20218;-72
2023/02/14 02:54:43;;;;;;;2.87;2.60;;;2.90;80.50;;;;;;4821313;29;20707;-72
2023/02/14 02:57:14;;;;;;;11.17;2.40;;;2.90;80.40;;;;;;4825445;29;20586;-73
2023/02/14 02:59:44;;;;;;;2.70;2.53;;;2.90;80.60;;;;;;4824957;29;20290;-73
2023/02/14 03:02:17;;;;;;;2.20;2.00;;;2.90;80.50;;;;;;4834824;29;20186;-73
2023/02/14 03:04:54;;;;;;;3.83;2.63;;;3.00;80.20;;;;;;4822764;29;20236;-73
2023/02/14 03:07:35;;;;;;;4.97;2.03;;;3.00;80.30;;;;;;4818540;29;20198;-72
2023/02/14 03:10:22;;;;;;;3.00;2.07;;;2.90;80.50;;;;;;4820839;29;20665;-72
2023/02/14 03:12:53;;;;;;;3.70;2.40;;;2.90;80.60;;;;;;4825311;29;20219;-72
2023/02/14 03:15:38;;;;;;;3.93;2.07;;;3.00;80.40;;;;;;4819002;29;20575;-73
2023/02/14 03:21:05;;;;;;;3.13;2.57;;;3.00;80.20;;;;;;4820407;29;20198;-72
2023/02/14 03:23:38;;;;;;;6.03;1.60;;;3.00;80.30;;;;;;4819390;29;20550;-72
2023/02/14 03:26:15;;;;;;;2.03;1.63;;;3.00;80.30;;;;;;4817750;29;20621;-72
2023/02/14 03:28:56;;;;;;;4.60;2.33;;;3.00;80.40;;;;;;4825266;29;20198;-72
2023/02/14 03:31:32;;;;;;;3.70;2.10;;;2.90;80.50;;;;;;4822333;29;20605;-72
2023/02/14 03:34:13;;;;;;;1.77;1.63;;;2.90;80.60;;;;;;4821549;29;20909;-73
2023/02/14 03:36:47;;;;;;;2.27;2.17;;;2.80;80.70;;;;;;4824554;29;20246;-72
2023/02/14 03:39:19;;;;;;;3.63;2.20;;;2.80;80.80;;;;;;4828826;29;20200;-72
2023/02/14 03:42:25;;;;;;;2.33;1.87;;;2.80;80.60;;;;;;4820793;29;20187;-72
2023/02/14 03:44:53;;;;;;;1.97;1.87;;;2.80;80.50;;;;;;4818833;29;20195;-71
2023/02/14 03:47:23;;;;;;;1.87;1.33;;;2.90;80.50;;;;;;4820510;29;20200;-71
2023/02/14 03:50:00;;;;;;;3.70;1.97;;;2.80;80.60;;;;;;4818353;29;20190;-71
2023/02/14 03:52:27;;;;;;;3.93;2.93;;;2.70;80.70;;;;;;4818016;29;20632;-72
2023/02/14 03:54:56;;;;;;;2.50;2.37;;;2.80;80.70;;;;;;4819550;29;20218;-71
2023/02/14 03:57:31;;;;;;;3.90;2.37;;;2.70;80.80;;;;;;4817671;29;20193;-73
2023/02/14 03:59:57;;;;;;;2.40;1.97;;;2.60;81.10;;;;;;4834681;29;20203;-72
2023/02/14 04:02:22;;;;;;;3.60;1.80;;;2.50;81.20;;;;;;4817996;29;21013;-72
2023/02/14 04:04:50;;;;;;;3.37;2.17;;;2.50;81.30;;;;;;4822281;29;20183;-72
2023/02/14 04:07:21;;;;;;;1.67;1.67;;;2.50;81.40;;;;;;4820801;29;21031;-72
2023/02/14 04:09:47;;;;;;;3.47;2.47;;;2.50;81.30;;;;;;4821527;29;20199;-73
2023/02/14 04:12:14;;;;;;;2.83;2.50;;;2.60;81.10;;;;;;4821863;29;20227;-73
2023/02/14 04:14:40;;;;;;;3.67;1.80;;;2.70;81.00;;;;;;4833512;29;20194;-73
2023/02/14 04:19:51;;;;;;;1.60;1.60;;;2.60;81.00;;;;;;4819690;29;20692;-73
2023/02/14 04:22:17;;;;;;;1.83;1.47;;;2.70;80.90;;;;;;4820502;29;20195;-73
2023/02/14 04:24:43;;;;;;;2.80;1.90;;;2.60;80.90;;;;;;4836494;29;20909;-72
2023/02/14 04:27:09;;;;;;;2.60;2.40;;;2.60;80.80;;;;;;4823447;29;20190;-72
2023/02/14 04:29:36;;;;;;;1.83;1.70;;;2.70;80.60;;;;;;4818525;29;20188;-72
2023/02/14 04:32:02;;;;;;;3.17;1.97;;;2.70;80.50;;;;;;4817880;29;20222;-72
2023/02/14 04:34:28;;;;;;;2.03;1.93;;;2.70;80.50;;;;;;4817916;29;20905;-72
2023/02/14 04:36:53;;;;;;;1.97;1.77;;;2.70;80.30;;;;;;4816271;29;20196;-72
2023/02/14 04:39:19;;;;;;;2.10;2.00;;;2.80;80.10;;;;;;4819555;29;20184;-72
2023/02/14 04:41:45;;;;;;;1.93;1.83;;;2.80;79.90;;;;;;4817829;29;20695;-73
2023/02/14 04:44:10;;;;;;;1.57;1.57;;;2.80;79.80;;;;;;4818375;29;20210;-72
2023/02/14 04:46:36;;;;;;;2.80;2.33;;;2.80;79.70;;;;;;4826648;29;20195;-73
2023/02/14 04:49:02;;;;;;;3.57;2.43;;;2.70;80.10;;;;;;4829552;29;20665;-72
2023/02/14 04:51:27;;;;;;;3.47;2.20;;;2.80;80.00;;;;;;4819346;29;20219;-72
2023/02/14 04:53:53;;;;;;;1.73;1.63;;;2.70;80.00;;;;;;4821382;29;20199;-73
2023/02/14 04:56:18;;;;;;;2.13;1.93;;;2.70;79.90;;;;;;4825135;29;20575;-72
2023/02/14 04:58:44;;;;;;;2.70;2.43;;;2.70;79.90;;;;;;4823181;29;20677;-72
2023/02/14 05:01:10;;;;;;;1.70;1.60;;;2.70;79.90;;;;;;4833551;29;20680;-73
2023/02/14 05:03:35;;;;;;;2.30;2.00;;;2.70;80.00;;;;;;4827212;29;20187;-73
2023/02/14 05:06:01;;;;;;;1.40;1.37;;;2.60;80.20;;;;;;4820361;29;20802;-72
2023/02/14 05:08:27;;;;;;;3.73;2.03;;;2.70;80.10;;;;;;4822724;29;20191;-72
2023/02/14 05:10:53;;;;;;;1.63;1.63;;;2.70;80.00;;;;;;4824748;29;20561;-71
2023/02/14 05:13:19;;;;;;;1.70;1.60;;;2.70;80.00;;;;;;4824324;29;20219;-71
2023/02/14 05:15:45;;;;;;;1.93;1.83;;;2.70;80.00;;;;;;4821185;29;20281;-71
2023/02/14 05:18:11;;;;;;;2.40;2.17;;;2.70;79.90;;;;;;4822715;29;20183;-72
2023/02/14 05:20:36;;;;;;;2.87;2.03;;;2.70;79.80;;;;;;4823227;29;20937;-75
2023/02/14 05:23:04;;;;;;;1.30;1.20;;;2.70;79.80;;;;;;4824475;29;20287;-76
2023/02/14 05:25:30;;;;;;;3.33;2.00;;;2.70;79.80;;;;;;4822665;29;20697;-76
2023/02/14 05:27:56;;;;;;;1.97;1.87;;;2.70;79.90;;;;;;4822599;29;20221;-76
2023/02/14 05:30:25;;;;;;;1.80;1.70;;;2.80;79.60;;;;;;4822090;29;20268;-76
2023/02/14 05:32:51;;;;;;;1.83;1.73;;;2.70;79.90;;;;;;4835444;29;20736;-75
2023/02/14 05:35:17;;;;;;;1.57;1.47;;;2.70;80.00;;;;;;4825079;29;20183;-75
2023/02/14 05:37:43;;;;;;;3.07;1.37;;;2.70;79.90;;;;;;4825260;29;20242;-75
2023/02/14 05:40:12;;;;;;;2.80;2.03;;;2.70;79.90;;;;;;4825213;29;20231;-75
2023/02/14 05:42:38;;;;;;;1.93;1.80;;;2.70;80.00;;;;;;4820192;29;20360;-76
2023/02/14 05:45:04;;;;;;;2.07;1.00;;;2.70;80.10;;;;;;4819108;29;20199;-76
2023/02/14 05:47:30;;;;;;;1.83;1.73;;;2.70;80.20;;;;;;4822128;29;20230;-75
2023/02/14 05:49:56;;;;;;;2.00;1.90;;;2.70;80.20;;;;;;4820628;29;20282;-75
2023/02/14 05:52:21;;;;;;;2.83;2.20;;;2.70;80.20;;;;;;4823693;29;20211;-75
2023/02/14 05:54:47;;;;;;;2.37;1.07;;;2.70;80.00;;;;;;4824797;29;20790;-77
2023/02/14 05:57:13;;;;;;;1.87;1.77;;;2.80;80.00;;;;;;4822191;29;20234;-76
2023/02/14 05:59:39;;;;;;;1.53;1.43;;;2.80;80.00;;;;;;4820560;29;20197;-76
2023/02/14 06:02:04;;;;;;;3.83;2.10;;;2.80;80.00;;;;;;4824108;29;20196;-75
2023/02/14 06:04:30;;;;;;;2.17;2.03;;;2.80;80.00;;;;;;4821730;29;20188;-75
2023/02/14 06:06:56;;;;;;;1.30;1.30;;;2.90;80.00;;;;;;4825881;29;20192;-75
2023/02/14 06:09:21;;;;;;;2.50;1.90;;;2.90;80.00;;;;;;4823512;29;20191;-76
2023/02/14 06:11:47;;;;;;;2.87;2.10;;;3.00;79.80;;;;;;4824692;29;20912;-74
2023/02/14 06:14:13;;;;;;;2.50;2.30;;;3.00;79.60;;;;;;4823457;29;20187;-74
2023/02/14 06:16:38;;;;;;;1.30;1.20;;;3.00;79.60;;;;;;4820819;29;20744;-74
2023/02/14 06:19:04;;;;;;;2.40;2.13;;;3.10;79.60;;;;;;4825639;29;20628;-74
2023/02/14 06:21:30;;;;;;;3.23;1.70;;;3.10;79.50;;;;;;4820043;29;20594;-75
2023/02/14 06:23:55;;;;;;;3.20;1.93;;;3.20;79.30;;;;;;4825417;29;20190;-74
2023/02/14 06:26:21;;;;;;;2.23;2.10;;;3.20;79.10;;;;;;4827095;29;20192;-74
2023/02/14 06:28:51;;;;;;;2.53;2.43;;;3.20;79.00;;;;;;4823442;29;20197;-75
2023/02/14 06:31:17;;;;;;;2.17;2.07;;;3.30;79.00;;;;;;4820343;29;20222;-75
2023/02/14 06:33:42;;;;;;;1.93;1.87;;;3.30;79.00;;;;;;4823971;29;20203;-75
2023/02/14 06:36:09;;;;;;;2.20;2.00;;;3.30;79.00;;;;;;4827783;29;20658;-75
2023/02/14 06:38:34;;;;;;;2.37;1.80;;;3.30;79.00;;;;;;4823810;29;20276;-74
2023/02/14 06:41:05;;;;;;;2.63;2.43;;;3.40;78.90;;;;;;4825622;29;20749;-74
2023/02/14 06:43:31;;;;;;;2.63;2.43;;;3.40;78.90;;;;;;4821709;29;20188;-75
2023/02/14 06:45:57;;;;;;;2.27;2.13;;;3.30;79.00;;;;;;4822886;29;20188;-74
2023/02/14 06:48:23;;;;;;;2.47;2.23;;;3.40;79.20;;;;;;4822729;29;20267;-75
2023/02/14 06:50:48;;;;;;;3.43;3.03;;;3.40;79.20;;;;;;4827938;29;20175;-75
2023/02/14 06:53:14;;;;;;;6.40;2.60;;;3.50;79.20;;;;;;4824389;29;20715;-74
2023/02/14 06:55:40;;;;;;;9.87;2.67;;;3.50;79.10;;;;;;4822295;29;20187;-74
2023/02/14 06:58:06;;;;;;;3.33;2.00;;;3.50;79.00;;;;;;4825360;29;20190;-74
2023/02/14 07:00:32;;;;;;;4.53;2.43;;;3.50;79.10;;;;;;4823268;29;20199;-74
2023/02/14 07:02:57;;;;;;;3.73;3.40;;;3.50;79.20;;;;;;4827503;29;21060;-74
2023/02/14 07:05:23;;;;;;;2.17;1.97;;;3.50;79.30;;;;;;4819094;29;20187;-73
2023/02/14 07:07:49;;;;;;;3.10;1.90;;;3.60;79.30;;;;;;4823095;29;20189;-76
2023/02/14 07:10:15;;;;;;;2.40;2.30;;;3.60;79.20;;;;;;4819140;29;20179;-75
2023/02/14 07:12:41;;;;;;;2.83;2.60;;;3.70;79.20;;;;;;4822692;29;20242;-75
2023/02/14 07:15:11;;;;;;;2.23;2.00;;;3.70;79.40;;;;;;4814764;29;20233;-75
2023/02/14 07:17:37;;;;;;;3.03;2.30;;;3.70;79.60;;;;;;4821914;29;20190;-75
2023/02/14 07:20:04;;;;;;;2.93;2.40;;;3.70;79.70;;;;;;4823086;29;20184;-75
2023/02/14 07:22:29;;;;;;;2.07;1.90;;;3.80;79.80;;;;;;4826559;29;20212;-75
2023/02/14 07:24:55;;;;;;;7.43;2.97;;;3.80;80.00;;;;;;4826394;29;20210;-76
2023/02/14 07:27:20;;;;;;;3.80;3.00;;;3.80;80.30;;;;;;4826810;29;20874;-74
2023/02/14 07:29:46;;;;;;;4.90;3.47;;;3.80;80.40;;;;;;4821886;29;20742;-74
2023/02/14 07:32:12;;;;;;;2.13;2.00;;;3.80;80.50;;;;;;4828825;29;20730;-75
2023/02/14 07:34:38;;;;;;;2.87;2.60;;;3.80;81.10;;;;;;4823273;29;20261;-75
2023/02/14 07:37:04;;;;;;;2.97;2.47;;;3.70;81.80;;;;;;4815611;29;20266;-73
2023/02/14 07:39:30;;;;;;;2.57;1.73;;;3.70;82.30;;;;;;4816525;29;20987;-74
2023/02/14 07:41:55;;;;;;;2.73;2.37;;;3.60;82.50;;;;;;4819462;29;20222;-75
2023/02/14 07:44:21;;;;;;;2.30;2.10;;;3.60;83.00;;;;;;4823967;29;20179;-74
2023/02/14 07:46:47;;;;;;;5.03;2.87;;;3.50;83.50;;;;;;4832350;29;20707;-75
2023/02/14 07:49:13;;;;;;;3.93;3.53;;;3.50;83.80;;;;;;4829960;29;20203;-74
2023/02/14 07:51:38;;;;;;;2.47;2.37;;;3.50;84.00;;;;;;4822215;29;21181;-75
2023/02/14 07:54:04;;;;;;;2.37;2.17;;;3.50;84.10;;;;;;4817027;29;20255;-74
2023/02/14 07:56:30;;;;;;;1.97;1.70;;;3.50;84.10;;;;;;4821563;29;20199;-74
2023/02/14 07:58:55;;;;;;;2.57;2.27;;;3.50;84.30;;;;;;4822082;29;20197;-74
2023/02/14 08:01:21;;;;;;;1.80;1.67;;;3.50;84.50;;;;;;4815108;29;20191;-75
2023/02/14 08:03:50;;;;;;;2.93;2.67;;;3.40;84.70;;;;;;4834201;29;20429;-74
2023/02/14 08:06:18;;;;;;;6.43;2.80;;;3.40;84.70;;;;;;4837900;29;20187;-74
2023/02/14 08:08:44;;;;;;;1.80;1.70;;;3.50;84.80;;;;;;4823341;29;20666;-75
2023/02/14 08:11:10;;;;;;;3.70;1.43;;;3.50;84.80;;;;;;4821361;29;20187;-75
2023/02/14 08:13:35;;;;;;;3.40;2.20;;;3.50;84.60;;;;;;4821273;29;20198;-74
2023/02/14 08:16:04;;;;;;;3.57;2.27;;;3.50;84.50;;;;;;4817014;29;20311;-74
2023/02/14 08:18:33;;;;;;;2.97;2.63;;;3.50;84.60;;;;;;4819570;29;20199;-74
2023/02/14 08:21:00;;;;;;;2.53;2.33;;;3.50;84.70;;;;;;4837765;29;20191;-74
2023/02/14 08:23:25;;;;;;;2.20;2.00;;;3.50;84.60;;;;;;4826880;29;20195;-74
2023/02/14 08:25:52;;;;;;;2.87;1.80;;;3.50;84.70;;;;;;4841252;29;20868;-75
2023/02/14 08:28:19;;;;;;;2.43;2.20;;;3.50;84.60;;;;;;4816443;29;20671;-74
2023/02/14 08:30:45;;;;;;;2.40;1.83;;;3.60;84.50;;;;;;4822061;29;20203;-74
2023/02/14 08:33:11;;;;;;;4.33;2.87;;;3.60;84.40;;;;;;4839670;29;20906;-75
2023/02/14 08:35:37;;;;;;;1.87;1.77;;;3.60;84.30;;;;;;4818429;29;20191;-74
2023/02/14 08:38:03;;;;;;;1.50;1.50;;;3.60;84.20;;;;;;4822545;29;20198;-75
2023/02/14 08:40:29;;;;;;;1.80;1.70;;;3.60;84.40;;;;;;4821023;29;20187;-75
2023/02/14 08:42:54;;;;;;;3.53;2.17;;;3.60;84.60;;;;;;4824649;29;20195;-75
2023/02/14 08:45:20;;;;;;;2.23;1.90;;;3.70;84.40;;;;;;4824396;29;20183;-74
2023/02/14 08:47:46;;;;;;;2.90;2.17;;;3.70;84.50;;;;;;4837432;29;20278;-75
2023/02/14 08:50:15;;;;;;;1.90;1.80;;;3.70;84.70;;;;;;4818230;29;20693;-75
2023/02/14 08:52:44;;;;;;;4.00;2.47;;;3.70;84.70;;;;;;4822993;29;20326;-75
2023/02/14 08:55:12;;;;;;;4.30;2.17;;;3.60;84.90;;;;;;4823138;29;20198;-74
2023/02/14 08:57:38;;;;;;;2.73;2.03;;;3.60;85.10;;;;;;4823354;29;20211;-75
2023/02/14 09:00:05;;;;;;;2.53;1.93;;;3.50;85.30;;;;;;4823008;29;20248;-74
2023/02/14 09:02:31;;;;;;;2.17;1.97;;;3.50;85.50;;;;;;4813213;29;20269;-74
2023/02/14 09:04:56;;;;;;;2.23;2.03;;;3.50;85.50;;;;;;4831399;29;20194;-74
2023/02/14 09:07:22;;;;;;;1.50;1.40;;;3.50;85.50;;;;;;4825137;29;20218;-75
2023/02/14 09:09:48;;;;;;;2.20;2.10;;;3.50;85.50;;;;;;4823091;29;20221;-75
2023/02/14 09:12:13;;;;;;;1.60;1.50;;;3.50;85.70;;;;;;4821452;29;20859;-74
2023/02/14 09:14:45;;;;;;;1.57;1.57;;;3.50;85.70;;;;;;4818113;29;21473;-75
2023/02/14 09:17:14;;;;;;;2.43;2.23;;;3.50;85.70;;;;;;4822426;29;20200;-75
2023/02/14 09:19:40;;;;;;;1.90;1.80;;;3.50;85.70;;;;;;4824753;29;20748;-75
2023/02/14 09:22:07;;;;;;;3.30;1.97;;;3.50;85.50;;;;;;4816534;29;20266;-75
2023/02/14 09:24:36;;;;;;;2.00;1.80;;;3.50;85.60;;;;;;4841796;29;20192;-75
2023/02/14 09:27:02;;;;;;;2.80;1.97;;;3.50;85.50;;;;;;4835610;29;20958;-75
2023/02/14 09:29:28;;;;;;;2.93;2.70;;;3.50;85.40;;;;;;4833868;29;20195;-74
2023/02/14 09:31:56;;;;;;;1.90;1.77;;;3.60;85.20;;;;;;4821648;29;20276;-75
2023/02/14 09:34:22;;;;;;;6.20;2.50;;;3.60;85.10;;;;;;4822168;29;20192;-75
2023/02/14 09:39:32;;;;;;;2.53;2.10;;;3.70;84.90;;;;;;4823121;29;20199;-74
2023/02/14 09:42:36;;;;;;;2.00;1.90;;;3.60;84.80;;;;;;4837087;29;20214;-74
2023/02/14 09:45:12;;;;;;;2.73;1.80;;;3.60;84.80;;;;;;4819178;29;20302;-74
2023/02/14 09:47:59;;;;;;;1.90;1.80;;;3.60;84.80;;;;;;4834761;29;20631;-74
2023/02/14 09:50:33;;;;;;;1.40;1.17;;;3.50;84.70;;;;;;4823056;29;20191;-74
2023/02/14 09:53:22;;;;;;;2.20;1.83;;;3.50;84.80;;;;;;4823584;29;20385;-74
2023/02/14 09:55:59;;;;;;;1.30;1.20;;;3.60;84.90;;;;;;4818086;29;20211;-74
2023/02/14 09:58:39;;;;;;;3.80;2.47;;;3.60;84.80;;;;;;4817124;29;20196;-74
2023/02/14 10:01:33;;;;;;;2.27;2.03;;;3.60;84.60;;;;;;4821342;29;20195;-74
2023/02/14 10:04:14;;;;;;;2.03;1.90;;;3.60;84.60;;;;;;4818887;29;20248;-75
2023/02/14 10:06:49;;;;;;;1.77;1.37;;;3.70;84.70;;;;;;4820470;29;20209;-76
2023/02/14 10:09:32;;;;;;;2.93;2.23;;;3.70;84.30;;;;;;4817618;29;20188;-75
2023/02/14 10:11:59;;;;;;;2.40;2.23;;;3.70;84.00;;;;;;4820053;29;20219;-73
2023/02/14 10:14:30;;;;;;;1.27;1.17;;;3.70;83.90;;;;;;4816278;29;20228;-74
2023/02/14 10:17:04;;;;;;;2.13;1.87;;;3.70;83.80;;;;;;4813774;29;20204;-74
2023/02/14 10:19:32;;;;;;;1.10;1.10;;;3.80;83.70;;;;;;4813699;29;20218;-74
2023/02/14 10:22:05;;;;;;;2.20;2.00;;;3.80;83.80;;;;;;4815298;29;20677;-74
2023/02/14 10:24:40;;;;;;;1.50;1.30;;;3.80;83.40;;;;;;4818063;29;20284;-74
2023/02/14 10:27:44;;;;;;;1.17;1.17;;;3.80;83.40;;;;;;4804128;29;20188;-74
2023/02/14 10:30:21;;;;;;;1.37;1.37;;;3.70;83.50;;;;;;4816657;29;20191;-76
2023/02/14 10:32:59;;;;;;;1.13;1.10;;;3.80;83.40;;;;;;4817686;29;20231;-74
2023/02/14 10:35:39;;;;;;;1.90;1.50;;;3.80;83.30;;;;;;4820150;29;20638;-74
2023/02/14 10:38:20;;;;;;;1.57;1.57;;;3.80;83.30;;;;;;4816717;29;20223;-73
2023/02/14 10:41:12;;;;;;;1.30;1.30;;;3.80;82.90;;;;;;4821287;29;20193;-74
2023/02/14 10:44:12;;;;;;;1.27;1.23;;;3.80;82.90;;;;;;4834965;29;20187;-73
2023/02/14 10:47:02;;;;;;;1.50;1.20;;;3.70;82.90;;;;;;4836421;29;20192;-74
2023/02/14 10:49:42;;;;;;;1.13;1.07;;;3.80;82.80;;;;;;4820419;29;20250;-73
2023/02/14 10:52:37;;;;;;;1.97;1.77;;;3.80;82.90;;;;;;4815996;29;20255;-76
2023/02/14 10:55:30;;;;;;;1.57;1.47;;;3.70;82.90;;;;;;4845491;29;20202;-75
2023/02/14 10:57:56;;;;;;;1.13;1.13;;;3.70;83.10;;;;;;4847565;29;21016;-76
2023/02/14 11:00:35;;;;;;;1.10;1.00;;;3.60;83.30;;;;;;4848307;29;20197;-73
2023/02/14 11:03:06;;;;;;;1.43;1.37;;;3.60;83.50;;;;;;4848383;29;20224;-74
2023/02/14 11:05:40;;;;;;;2.30;1.87;;;3.50;83.60;;;;;;4832203;29;21235;-76
2023/02/14 11:08:28;;;;;;;1.40;1.30;;;3.50;83.70;;;;;;4846454;29;20190;-74
2023/02/14 11:11:16;;;;;;;1.53;1.43;;;3.50;83.60;;;;;;4848263;29;20590;-74
2023/02/14 11:13:42;;;;;;;2.87;2.03;;;3.50;83.50;;;;;;4849116;29;20632;-75
2023/02/14 11:16:10;;;;;;;2.93;2.40;;;3.50;83.50;;;;;;4848752;29;20264;-74
2023/02/14 11:18:39;;;;;;;2.13;2.03;;;3.50;83.50;;;;;;4843599;29;20210;-73
2023/02/14 11:21:09;;;;;;;2.07;1.90;;;3.50;83.30;;;;;;4845079;29;20197;-73
2023/02/14 11:23:42;;;;;;;1.90;1.80;;;3.50;83.00;;;;;;4842170;29;20221;-75
2023/02/14 11:26:20;;;;;;;1.83;1.73;;;3.50;83.00;;;;;;4845439;29;20256;-74
2023/02/14 11:28:57;;;;;;;1.60;1.50;;;3.50;83.20;;;;;;4843126;29;20323;-73
2023/02/14 11:31:32;;;;;;;1.77;1.67;;;3.60;82.80;;;;;;4832012;29;20200;-73
2023/02/14 11:34:00;;;;;;;2.03;1.87;;;3.70;82.30;;;;;;4830288;29;20256;-73
2023/02/14 11:36:26;;;;;;;2.03;1.83;;;3.70;82.20;;;;;;4835549;29;20210;-73
2023/02/14 11:39:17;;;;;;;1.57;1.40;;;3.70;81.90;;;;;;4823384;29;20190;-73
2023/02/14 11:41:46;;;;;;;1.83;1.40;;;3.80;81.60;;;;;;4817918;29;20604;-74
2023/02/14 11:44:21;;;;;;;1.77;1.47;;;3.80;81.00;;;;;;4822302;29;20183;-73
2023/02/14 11:46:50;;;;;;;0.97;0.90;;;3.70;80.70;;;;;;4819881;29;20194;-74
2023/02/14 11:49:27;;;;;;;2.70;1.90;;;3.70;80.70;;;;;;4821929;29;20204;-75
2023/02/14 11:51:53;;;;;;;1.20;1.20;;;3.80;80.50;;;;;;4816795;29;20215;-75
2023/02/14 11:54:37;;;;;;;1.20;1.20;;;3.80;80.20;;;;;;4820043;29;20191;-73
2023/02/14 11:57:27;;;;;;;1.20;1.20;;;3.90;79.90;;;;;;4818688;29;20597;-75
2023/02/14 11:59:55;;;;;;;1.23;1.23;;;3.90;79.80;;;;;;4822914;29;20578;-74
2023/02/14 12:02:40;;;;;;;1.40;1.30;;;4.00;79.30;;;;;;4821634;29;20269;-76
2023/02/14 12:05:35;;;;;;;2.70;1.47;;;4.00;79.20;;;;;;4821431;29;20813;-74
2023/02/14 12:08:03;;;;;;;1.80;1.47;;;4.00;79.20;;;;;;4832972;29;20205;-73
2023/02/14 12:10:37;;;;;;;1.50;1.40;;;4.00;79.20;;;;;;4823223;29;20696;-73
2023/02/14 12:13:08;;;;;;;1.07;1.07;;;4.10;79.30;;;;;;4820531;29;20231;-73
2023/02/14 12:15:43;;;;;;;1.73;1.63;;;4.10;79.30;;;;;;4822176;29;20187;-75
2023/02/14 12:18:33;;;;;;;1.77;1.27;;;4.10;79.30;;;;;;4823170;29;20297;-75
2023/02/14 12:20:59;;;;;;;1.63;1.53;;;4.10;79.40;;;;;;4817249;29;20195;-75
2023/02/14 12:23:39;;;;;;;1.77;1.63;;;4.10;79.60;;;;;;4819152;29;20209;-73
2023/02/14 12:26:33;;;;;;;1.10;1.10;;;4.00;79.90;;;;;;4826006;29;20196;-74
2023/02/14 12:29:26;;;;;;;1.67;1.37;;;4.00;79.80;;;;;;4820654;29;20198;-74
2023/02/14 12:31:55;;;;;;;1.17;0.83;;;4.00;80.00;;;;;;4830994;29;20736;-74
2023/02/14 12:34:21;;;;;;;1.17;1.17;;;4.00;80.10;;;;;;4823562;29;20273;-74
2023/02/14 12:37:14;;;;;;;2.33;1.20;;;4.00;80.10;;;;;;4819025;29;20665;-74
2023/02/14 12:39:52;;;;;;;1.37;1.13;;;4.00;80.00;;;;;;4825335;29;20229;-74
2023/02/14 12:42:40;;;;;;;1.07;1.03;;;4.10;79.90;;;;;;4816153;29;20196;-74
2023/02/14 12:45:42;;;;;;;1.20;1.20;;;4.20;79.80;;;;;;4833823;29;20206;-74
2023/02/14 12:48:23;;;;;;;1.07;1.00;;;4.20;79.70;;;;;;4817598;29;20598;-74
2023/02/14 12:50:56;;;;;;;2.30;1.23;;;4.20;79.60;;;;;;4823168;29;20201;-75
2023/02/14 12:53:38;;;;;;;2.33;1.73;;;4.30;79.60;;;;;;4815703;29;20605;-75
2023/02/14 12:56:30;;;;;;;1.40;1.30;;;4.30;79.50;;;;;;4817297;29;20696;-75
2023/02/14 12:59:24;;;;;;;1.47;1.37;;;4.30;79.50;;;;;;4836297;29;20202;-76
2023/02/14 13:01:54;;;;;;;0.90;0.90;;;4.40;79.30;;;;;;4841105;29;20210;-75
2023/02/14 13:04:31;;;;;;;1.53;1.47;;;4.40;79.30;;;;;;4839054;29;20701;-74
2023/02/14 13:07:23;;;;;;;1.90;1.53;;;4.40;79.40;;;;;;4837686;29;20663;-74
2023/02/14 13:10:17;;;;;;;0.97;0.93;;;4.30;79.50;;;;;;4840135;29;20202;-75
2023/02/14 13:12:58;;;;;;;3.53;1.33;;;4.30;79.80;;;;;;4846083;29;20230;-75
2023/02/14 13:15:52;;;;;;;1.70;1.47;;;4.30;79.90;;;;;;4838365;29;20286;-75
2023/02/14 13:18:31;;;;;;;1.07;1.07;;;4.30;80.10;;;;;;4840343;29;20205;-76
2023/02/14 13:21:00;;;;;;;4.47;1.67;;;4.30;80.20;;;;;;4843760;29;20205;-77
2023/02/14 13:23:39;;;;;;;1.60;1.53;;;4.20;80.30;;;;;;4825823;29;20210;-78
2023/02/14 13:26:24;;;;;;;1.50;1.40;;;4.20;80.50;;;;;;4845237;29;20258;-75
2023/02/14 13:29:05;;;;;;;1.33;0.97;;;4.20;80.60;;;;;;4843500;29;20207;-75
2023/02/14 13:31:32;;;;;;;2.17;1.60;;;4.30;80.70;;;;;;4841771;29;20191;-77
2023/02/14 13:34:19;;;;;;;3.43;2.13;;;4.40;80.40;;;;;;4842339;29;20194;-74
2023/02/14 13:36:46;;;;;;;2.33;1.70;;;4.40;80.30;;;;;;4826948;29;20208;-75
2023/02/14 13:39:30;;;;;;;1.40;1.30;;;4.40;80.30;;;;;;4824675;29;20290;-74
2023/02/14 13:41:56;;;;;;;2.17;1.93;;;4.50;80.30;;;;;;4826847;29;20191;-75